createdAt,value
2019-02-17T00:04:04.186Z,15.77
2019-02-17T00:08:09.027Z,15.40
2019-02-17T00:12:13.295Z,13.47
2019-02-17T00:16:17.992Z,14.30
2019-02-17T00:20:22.274Z,15.03
2019-02-17T00:24:27.133Z,12.20
2019-02-17T00:28:31.421Z,13.13
2019-02-17T00:32:35.636Z,12.83
2019-02-17T00:36:39.923Z,12.43
2019-02-17T00:40:44.211Z,13.67
2019-02-17T00:44:48.648Z,19.00
2019-02-17T00:48:53.085Z,12.50
2019-02-17T00:52:57.460Z,11.80
2019-02-17T00:57:01.742Z,11.23
2019-02-17T01:01:06.056Z,14.47
2019-02-17T01:05:10.476Z,15.90
2019-02-17T01:09:14.785Z,17.23
2019-02-17T01:13:19.018Z,12.20
2019-02-17T01:17:23.278Z,13.67
2019-02-17T01:21:27.469Z,12.17
2019-02-17T01:25:31.718Z,12.50
2019-02-17T01:29:35.993Z,12.23
2019-02-17T01:33:40.250Z,14.00
2019-02-17T01:37:44.476Z,15.73
2019-02-17T01:41:48.672Z,15.30
2019-02-17T01:45:52.934Z,14.10
2019-02-17T01:49:57.240Z,16.33
2019-02-17T01:54:01.859Z,12.93
2019-02-17T01:58:06.131Z,12.13
2019-02-17T02:02:10.443Z,16.33
2019-02-17T02:06:14.740Z,16.30
2019-02-17T02:10:18.957Z,12.57
2019-02-17T02:14:23.162Z,15.63
2019-02-17T02:18:27.446Z,13.70
2019-02-17T02:22:31.930Z,13.80
2019-02-17T02:26:36.175Z,15.30
2019-02-17T02:30:40.986Z,15.67
2019-02-17T02:34:45.224Z,14.90
2019-02-17T02:38:49.403Z,14.57
2019-02-17T02:42:53.959Z,13.23
2019-02-17T02:46:58.277Z,12.87
2019-02-17T02:51:02.504Z,15.53
2019-02-17T02:55:06.972Z,12.23
2019-02-17T02:59:11.373Z,12.37
2019-02-17T03:03:15.613Z,14.07
2019-02-17T03:07:21.389Z,12.23
2019-02-17T03:11:25.693Z,16.93
2019-02-17T03:15:29.931Z,14.23
2019-02-17T03:19:34.490Z,14.37
2019-02-17T03:23:38.709Z,12.43
2019-02-17T03:27:42.945Z,16.53
2019-02-17T03:31:47.194Z,14.37
2019-02-17T03:35:51.450Z,15.90
2019-02-17T03:39:56.014Z,14.83
2019-02-17T03:44:00.568Z,15.03
2019-02-17T03:48:04.977Z,17.60
2019-02-17T03:52:09.137Z,14.47
2019-02-17T03:56:13.455Z,15.70
2019-02-17T04:00:17.772Z,14.73
2019-02-17T04:04:22.024Z,14.20
2019-02-17T04:08:26.307Z,17.50
2019-02-17T04:12:30.559Z,17.00
2019-02-17T04:16:34.741Z,13.67
2019-02-17T04:20:39.046Z,13.43
2019-02-17T04:24:43.291Z,14.30
2019-02-17T04:28:47.502Z,17.97
2019-02-17T04:32:51.756Z,16.40
2019-02-17T04:36:56.078Z,14.77
2019-02-17T04:41:00.319Z,14.67
2019-02-17T04:45:05.754Z,14.40
2019-02-17T04:49:10.029Z,12.90
2019-02-17T04:53:14.268Z,12.63
2019-02-17T04:57:18.449Z,12.80
2019-02-17T05:01:22.705Z,11.53
2019-02-17T05:05:26.936Z,15.70
2019-02-17T05:09:31.179Z,13.33
2019-02-17T05:13:35.356Z,14.90
2019-02-17T05:17:39.655Z,13.43
2019-02-17T05:21:43.918Z,14.40
2019-02-17T05:25:48.290Z,16.83
2019-02-17T05:29:52.532Z,14.70
2019-02-17T05:33:56.882Z,16.40
2019-02-17T05:38:01.218Z,14.90
2019-02-17T05:42:05.433Z,18.03
2019-02-17T05:46:09.628Z,14.30
2019-02-17T05:50:13.854Z,14.33
2019-02-17T05:54:18.105Z,14.97
2019-02-17T05:58:22.434Z,17.97
2019-02-17T06:02:26.652Z,15.93
2019-02-17T06:06:30.948Z,12.63
2019-02-17T06:10:35.124Z,15.53
2019-02-17T06:14:39.482Z,16.97
2019-02-17T06:18:44.034Z,14.50
2019-02-17T06:22:48.341Z,16.00
2019-02-17T06:26:52.551Z,13.83
2019-02-17T06:30:56.771Z,13.33
2019-02-17T06:35:01.011Z,15.93
2019-02-17T06:39:06.266Z,14.70
2019-02-17T06:43:10.458Z,16.33
2019-02-17T06:47:27.713Z,15.67
2019-02-17T06:51:31.940Z,15.80
2019-02-17T06:55:46.823Z,16.20
2019-02-17T06:59:52.922Z,13.87
2019-02-17T07:03:57.151Z,16.33
2019-02-17T07:08:01.340Z,18.03
2019-02-17T07:12:05.571Z,15.23
2019-02-17T07:16:10.109Z,11.90
2019-02-17T07:20:14.666Z,14.23
2019-02-17T07:24:18.899Z,14.10
2019-02-17T07:28:23.100Z,15.83
2019-02-17T07:32:27.399Z,14.53
2019-02-17T07:36:31.645Z,12.80
2019-02-17T07:40:35.867Z,12.77
2019-02-17T07:44:40.527Z,15.60
2019-02-17T07:48:44.980Z,12.33
2019-02-17T07:52:49.206Z,11.03
2019-02-17T07:56:53.470Z,11.60
2019-02-17T08:00:57.642Z,11.50
2019-02-17T08:05:02.260Z,11.10
2019-02-17T08:09:07.162Z,11.37
2019-02-17T08:13:11.396Z,11.87
2019-02-17T08:17:15.687Z,14.03
2019-02-17T08:21:19.880Z,15.60
2019-02-17T08:25:24.130Z,14.03
2019-02-17T08:29:28.385Z,14.87
2019-02-17T08:33:32.641Z,21.13
2019-02-17T08:37:36.835Z,24.10
2019-02-17T08:41:41.074Z,30.17
2019-02-17T08:45:45.381Z,33.73
2019-02-17T08:49:49.729Z,27.17
2019-02-17T08:53:53.955Z,28.20
2019-02-17T08:57:58.225Z,29.87
2019-02-17T09:02:05.869Z,31.13
2019-02-17T09:06:09.401Z,33.13
2019-02-17T09:10:13.673Z,28.00
2019-02-17T09:14:17.957Z,32.20
2019-02-17T09:18:22.131Z,33.80
2019-02-17T09:22:26.350Z,31.83
2019-02-17T09:26:30.638Z,32.80
2019-02-17T09:30:34.823Z,32.40
2019-02-17T09:34:39.056Z,32.53
2019-02-17T09:38:43.420Z,29.10
2019-02-17T09:42:47.651Z,31.83
2019-02-17T09:46:52.268Z,34.03
2019-02-17T09:50:56.508Z,32.27
2019-02-17T09:55:01.052Z,31.97
2019-02-17T09:59:05.808Z,28.93
2019-02-17T10:03:10.047Z,31.13
2019-02-17T10:07:14.244Z,30.30
2019-02-17T10:11:18.485Z,33.27
2019-02-17T10:15:22.717Z,33.07
2019-02-17T10:19:26.929Z,37.27
2019-02-17T10:23:31.189Z,33.73
2019-02-17T10:27:35.371Z,34.47
2019-02-17T10:31:39.660Z,33.90
2019-02-17T10:35:43.893Z,35.57
2019-02-17T10:39:48.164Z,40.57
2019-02-17T10:43:52.388Z,35.63
2019-02-17T10:47:56.604Z,32.83
2019-02-17T10:52:00.953Z,31.93
2019-02-17T10:56:05.246Z,34.73
2019-02-17T11:00:13.003Z,32.40
2019-02-17T11:04:17.209Z,34.43
2019-02-17T11:08:21.699Z,29.33
2019-02-17T11:12:25.913Z,38.13
2019-02-17T11:16:30.247Z,36.73
2019-02-17T11:20:34.931Z,40.10
2019-02-17T11:24:39.201Z,30.53
2019-02-17T11:28:43.447Z,34.50
2019-02-17T11:32:57.182Z,35.90
2019-02-17T11:36:53.929Z,33.87
2019-02-17T11:40:58.242Z,28.57
2019-02-17T11:45:05.220Z,35.00
2019-02-17T11:49:09.477Z,36.50
2019-02-17T11:53:13.730Z,31.67
2019-02-17T11:57:18.339Z,30.13
2019-02-17T12:01:22.581Z,31.77
2019-02-17T12:05:27.081Z,29.73
2019-02-17T12:10:17.649Z,30.90
2019-02-17T12:14:21.897Z,33.37
2019-02-17T12:18:26.203Z,26.53
2019-02-17T12:22:52.173Z,27.60
2019-02-17T12:27:03.978Z,32.00
2019-02-17T12:31:08.541Z,30.27
2019-02-17T12:35:12.723Z,30.83
2019-02-17T12:39:17.042Z,29.43
2019-02-17T12:43:21.312Z,30.70
2019-02-17T12:47:25.528Z,28.23
2019-02-17T12:51:29.817Z,28.83
2019-02-17T12:55:34.210Z,27.07
2019-02-17T12:59:38.803Z,23.90
2019-02-17T13:03:43.149Z,24.40
2019-02-17T13:07:47.488Z,25.73
2019-02-17T13:11:51.741Z,30.40
2019-02-17T13:15:56.000Z,26.10
2019-02-17T13:20:00.331Z,27.00
2019-02-17T13:24:04.556Z,26.50
2019-02-17T13:28:08.803Z,25.57
2019-02-17T13:32:13.038Z,22.07
2019-02-17T13:36:17.478Z,26.20
2019-02-17T13:40:21.743Z,23.40
2019-02-17T13:44:26.368Z,21.07
2019-02-17T13:48:30.620Z,21.50
2019-02-17T13:52:34.915Z,21.23
2019-02-17T13:56:39.915Z,23.30
2019-02-17T14:00:44.127Z,24.80
2019-02-17T14:04:48.549Z,21.83
2019-02-17T14:08:52.768Z,23.70
2019-02-17T14:12:57.119Z,21.57
2019-02-17T14:17:01.374Z,27.73
2019-02-17T14:21:05.622Z,21.10
2019-02-17T14:25:11.261Z,22.17
2019-02-17T14:29:15.657Z,22.53
2019-02-17T14:33:19.954Z,21.07
2019-02-17T14:37:24.227Z,21.23
2019-02-17T14:41:28.475Z,19.17
2019-02-17T14:45:32.693Z,19.13
2019-02-17T14:49:36.921Z,17.07
2019-02-17T14:53:41.230Z,17.80
2019-02-17T14:57:45.470Z,15.93
2019-02-17T15:01:50.006Z,17.23
2019-02-17T15:05:54.589Z,17.37
2019-02-17T15:09:58.801Z,15.13
2019-02-17T15:14:03.628Z,18.13
2019-02-17T15:18:07.887Z,16.03
2019-02-17T15:22:12.432Z,19.20
2019-02-17T15:26:16.697Z,19.53
2019-02-17T15:30:20.967Z,13.67
2019-02-17T15:34:25.249Z,17.47
2019-02-17T15:38:29.481Z,17.70
2019-02-17T15:42:33.702Z,18.80
2019-02-17T15:46:37.953Z,16.23
2019-02-17T15:50:42.138Z,19.13
2019-02-17T15:54:47.485Z,26.23
2019-02-17T15:58:51.797Z,21.03
2019-02-17T16:02:56.105Z,29.63
2019-02-17T16:07:00.594Z,24.67
2019-02-17T16:11:06.087Z,19.40
2019-02-17T16:15:12.530Z,21.97
2019-02-17T16:19:16.791Z,22.10
2019-02-17T16:23:21.027Z,24.30
2019-02-17T16:27:25.674Z,22.40
2019-02-17T16:31:29.919Z,18.90
2019-02-17T16:35:34.204Z,23.23
2019-02-17T16:39:38.435Z,22.20
2019-02-17T16:43:42.699Z,25.90
2019-02-17T16:47:47.002Z,23.50
2019-02-17T16:51:51.829Z,22.07
2019-02-17T16:55:56.084Z,20.00
2019-02-17T17:00:00.346Z,20.67
2019-02-17T17:04:04.549Z,23.90
2019-02-17T17:08:08.747Z,18.97
2019-02-17T17:12:13.398Z,25.40
2019-02-17T17:16:17.625Z,20.00
2019-02-17T17:20:21.939Z,21.00
2019-02-17T17:24:26.242Z,22.03
2019-02-17T17:28:30.426Z,22.50
2019-02-17T17:32:34.678Z,21.80
2019-02-17T17:36:39.012Z,22.70
2019-02-17T17:40:43.280Z,25.27
2019-02-17T17:44:47.496Z,29.23
2019-02-17T17:48:52.863Z,22.43
2019-02-17T17:52:57.045Z,19.50
2019-02-17T17:57:01.417Z,22.37
2019-02-17T18:01:07.803Z,21.23
2019-02-17T18:05:11.795Z,23.20
2019-02-17T18:09:16.030Z,21.50
2019-02-17T18:13:21.942Z,24.67
2019-02-17T18:17:26.365Z,26.10
2019-02-17T18:21:30.586Z,25.40
2019-02-17T18:25:34.838Z,25.63
2019-02-17T18:29:39.110Z,27.37
2019-02-17T18:33:43.354Z,28.93
2019-02-17T18:37:47.596Z,25.90
2019-02-17T18:41:51.794Z,24.77
2019-02-17T18:45:56.397Z,26.70
2019-02-17T18:50:00.594Z,25.50
2019-02-17T18:54:04.879Z,24.40
2019-02-17T18:58:09.217Z,22.80
2019-02-17T19:02:13.457Z,26.57
2019-02-17T19:06:17.741Z,27.13
2019-02-17T19:10:22.020Z,26.20
2019-02-17T19:14:26.768Z,22.30
2019-02-17T19:18:31.013Z,29.20
2019-02-17T19:22:35.384Z,29.43
2019-02-17T19:26:39.712Z,29.07
2019-02-17T19:30:43.975Z,29.43
2019-02-17T19:34:48.254Z,31.93
2019-02-17T19:38:52.604Z,26.07
2019-02-17T19:42:56.928Z,31.10
2019-02-17T19:47:01.234Z,27.70
2019-02-17T19:51:05.565Z,25.57
2019-02-17T19:55:10.395Z,30.93
2019-02-17T19:59:14.726Z,26.17
2019-02-17T20:03:34.215Z,25.47
2019-02-17T20:07:38.517Z,25.27
2019-02-17T20:11:42.896Z,30.03
2019-02-17T20:15:47.291Z,27.47
2019-02-17T20:19:51.515Z,27.60
2019-02-17T20:23:55.851Z,28.60
2019-02-17T20:28:00.159Z,25.23
2019-02-17T20:32:04.622Z,23.97
2019-02-17T20:36:08.957Z,26.27
2019-02-17T20:40:13.349Z,20.57
2019-02-17T20:44:17.817Z,23.20
2019-02-17T20:48:22.068Z,27.70
2019-02-17T20:52:26.326Z,25.70
2019-02-17T20:56:31.373Z,23.17
2019-02-17T21:00:35.881Z,25.23
2019-02-17T21:04:40.356Z,24.37
2019-02-17T21:08:44.614Z,24.30
2019-02-17T21:12:48.922Z,27.27
2019-02-17T21:16:53.203Z,27.27
2019-02-17T21:20:57.924Z,25.23
2019-02-17T21:25:02.429Z,23.07
2019-02-17T21:29:06.894Z,23.67
2019-02-17T21:33:11.243Z,28.57
2019-02-17T21:37:15.655Z,26.17
2019-02-17T21:41:20.077Z,23.77
2019-02-17T21:45:24.397Z,23.33
2019-02-17T21:49:28.663Z,19.87
2019-02-17T21:53:32.927Z,26.53
2019-02-17T21:57:37.170Z,25.17
2019-02-17T22:01:41.393Z,22.27
2019-02-17T22:05:45.641Z,23.50
2019-02-17T22:09:49.978Z,28.77
2019-02-17T22:13:54.224Z,31.07
2019-02-17T22:17:58.410Z,25.93
2019-02-17T22:22:02.752Z,33.30
2019-02-17T22:26:07.080Z,30.60
2019-02-17T22:30:11.799Z,27.63
2019-02-17T22:34:15.990Z,32.00
2019-02-17T22:38:20.226Z,22.60
2019-02-17T22:42:24.455Z,27.00
2019-02-17T22:46:28.714Z,23.00
2019-02-17T22:50:32.895Z,26.97
2019-02-17T22:54:37.195Z,24.43
2019-02-17T22:58:41.456Z,27.40
2019-02-17T23:02:45.739Z,26.77
2019-02-17T23:06:54.137Z,28.80
2019-02-17T23:10:55.920Z,26.87
2019-02-17T23:15:00.324Z,22.07
2019-02-17T23:19:04.941Z,29.00
2019-02-17T23:23:09.260Z,21.33
2019-02-17T23:27:13.494Z,26.67
2019-02-17T23:31:17.718Z,31.03
2019-02-17T23:35:21.977Z,32.97
2019-02-17T23:39:26.211Z,25.57
2019-02-17T23:43:30.480Z,25.30
2019-02-17T23:47:34.641Z,27.97
2019-02-17T23:51:38.876Z,26.17
2019-02-17T23:55:43.139Z,27.13
2019-02-17T23:59:47.388Z,25.87
